createdAt,value
2019-06-01T00:04:03.363Z,2.35
2019-06-01T00:09:07.908Z,3.08
2019-06-01T00:14:11.297Z,3.08
2019-06-01T00:19:14.691Z,2.98
2019-06-01T00:24:18.454Z,3.33
2019-06-01T00:29:22.174Z,2.90
2019-06-01T00:34:25.881Z,3.50
2019-06-01T00:39:29.281Z,2.75
2019-06-01T00:44:33.015Z,2.98
2019-06-01T00:49:36.416Z,3.70
2019-06-01T00:54:40.176Z,3.25
2019-06-01T00:59:43.879Z,3.50
2019-06-01T01:04:48.788Z,3.30
2019-06-01T01:09:52.917Z,3.67
2019-06-01T01:14:56.678Z,4.42
2019-06-01T01:20:00.071Z,3.70
2019-06-01T01:25:04.529Z,4.08
2019-06-01T01:30:08.167Z,3.62
2019-06-01T01:35:11.644Z,3.60
2019-06-01T01:40:15.184Z,3.08
2019-06-01T01:45:18.818Z,3.62
2019-06-01T01:50:24.857Z,4.15
2019-06-01T01:55:28.255Z,3.92
2019-06-01T02:00:45.833Z,3.87
2019-06-01T02:05:49.213Z,3.92
2019-06-01T02:10:53.321Z,4.03
2019-06-01T02:15:58.217Z,3.87
2019-06-01T02:21:02.710Z,3.70
2019-06-01T02:26:06.258Z,3.80
2019-06-01T02:31:09.621Z,3.95
2019-06-01T02:36:13.316Z,4.20
2019-06-01T02:41:16.882Z,3.80
2019-06-01T02:46:20.272Z,4.17
2019-06-01T02:51:23.666Z,3.65
2019-06-01T02:56:27.061Z,4.12
2019-06-01T03:01:34.353Z,4.60
2019-06-01T03:06:39.743Z,3.25
2019-06-01T03:11:43.882Z,4.00
2019-06-01T03:16:50.459Z,4.17
2019-06-01T03:21:56.898Z,4.90
2019-06-01T03:27:02.908Z,4.25
2019-06-01T03:32:29.725Z,4.72
2019-06-01T03:37:13.576Z,4.33
2019-06-01T03:42:17.911Z,4.15
2019-06-01T03:47:21.314Z,4.65
2019-06-01T03:52:24.963Z,5.15
2019-06-01T03:57:28.414Z,4.45
2019-06-01T04:02:33.368Z,4.33
2019-06-01T04:07:39.048Z,4.60
2019-06-01T04:12:42.578Z,4.35
2019-06-01T04:17:45.980Z,3.90
2019-06-01T04:22:49.437Z,5.05
2019-06-01T04:27:52.835Z,5.20
2019-06-01T04:32:56.535Z,4.95
2019-06-01T04:38:00.237Z,5.10
2019-06-01T04:43:03.899Z,5.90
2019-06-01T04:48:08.399Z,5.65
2019-06-01T04:53:13.457Z,5.08
2019-06-01T04:58:17.018Z,6.12
2019-06-01T05:03:20.690Z,6.05
2019-06-01T05:08:24.432Z,6.90
2019-06-01T05:13:28.142Z,5.40
2019-06-01T05:18:31.599Z,4.97
2019-06-01T05:23:34.990Z,4.60
2019-06-01T05:28:38.390Z,5.37
2019-06-01T05:33:42.102Z,6.10
2019-06-01T05:38:45.820Z,6.28
2019-06-01T05:43:49.539Z,5.62
2019-06-01T05:48:53.262Z,6.10
2019-06-01T05:53:56.658Z,6.35
2019-06-01T05:59:00.411Z,6.30
2019-06-01T06:04:03.872Z,5.60
2019-06-01T06:09:09.173Z,5.75
2019-06-01T06:14:13.356Z,5.85
2019-06-01T06:19:20.263Z,5.03
2019-06-01T06:24:22.693Z,4.78
2019-06-01T06:29:26.426Z,5.92
2019-06-01T06:34:29.804Z,4.42
2019-06-01T06:39:33.437Z,4.20
2019-06-01T06:44:37.072Z,4.10
2019-06-01T06:49:40.709Z,3.45
2019-06-01T06:54:44.143Z,4.00
2019-06-01T06:59:47.774Z,4.20
2019-06-01T07:04:51.452Z,4.03
2019-06-01T07:09:55.189Z,3.55
2019-06-01T07:14:58.884Z,3.52
2019-06-01T07:20:02.518Z,2.40
2019-06-01T07:25:07.261Z,1.80
2019-06-01T07:30:11.185Z,1.90
2019-06-01T07:35:14.891Z,1.90
2019-06-01T07:40:18.583Z,1.50
2019-06-01T07:45:22.878Z,1.12
2019-06-01T07:50:26.348Z,1.52
2019-06-01T07:55:29.843Z,1.40
2019-06-01T08:00:33.369Z,1.40
2019-06-01T08:05:36.772Z,1.70
2019-06-01T08:10:40.440Z,1.60
2019-06-01T08:15:44.167Z,1.90
2019-06-01T08:20:47.564Z,1.60
2019-06-01T08:25:51.299Z,1.60
2019-06-01T08:30:54.930Z,1.35
2019-06-01T08:35:58.328Z,1.77
2019-06-01T08:41:01.731Z,1.60
2019-06-01T08:46:05.555Z,1.62
2019-06-01T08:51:09.281Z,1.80
2019-06-01T08:56:13.510Z,2.02
2019-06-01T09:01:16.911Z,2.30
2019-06-01T09:06:20.645Z,1.95
2019-06-01T09:11:25.082Z,1.80
2019-06-01T09:16:29.649Z,1.57
2019-06-01T09:21:33.652Z,1.98
2019-06-01T09:26:37.270Z,2.00
2019-06-01T09:31:40.672Z,2.17
2019-06-01T09:36:44.408Z,1.85
2019-06-01T09:41:48.128Z,1.70
2019-06-01T09:46:51.531Z,1.40
2019-06-01T09:51:54.928Z,1.70
2019-06-01T09:56:58.592Z,1.70
2019-06-01T10:02:02.225Z,1.90
2019-06-01T10:07:05.624Z,1.82
2019-06-01T10:12:09.022Z,1.90
2019-06-01T10:17:12.757Z,1.98
2019-06-01T10:22:16.478Z,1.98
2019-06-01T10:27:19.887Z,2.02
2019-06-01T10:32:23.605Z,1.92
2019-06-01T10:37:27.337Z,1.90
2019-06-01T10:42:32.677Z,2.02
2019-06-01T10:47:36.502Z,2.20
2019-06-01T10:52:40.454Z,2.10
2019-06-01T10:57:43.802Z,1.90
2019-06-01T11:02:47.199Z,2.00
2019-06-01T11:07:50.880Z,2.00
2019-06-01T11:12:54.614Z,1.70
2019-06-01T11:17:58.322Z,1.60
2019-06-01T11:23:02.143Z,1.57
2019-06-01T11:28:05.877Z,1.65
2019-06-01T11:33:09.275Z,1.77
2019-06-01T11:38:12.670Z,1.75
2019-06-01T11:43:16.417Z,1.80
2019-06-01T11:48:20.049Z,1.70
2019-06-01T11:53:23.778Z,1.72
2019-06-01T11:58:27.171Z,1.60
2019-06-01T12:03:30.574Z,1.70
2019-06-01T12:08:34.370Z,2.00
2019-06-01T12:13:38.390Z,1.65
2019-06-01T12:18:42.646Z,1.90
2019-06-01T12:23:47.469Z,1.60
2019-06-01T12:28:51.071Z,1.70
2019-06-01T12:33:54.757Z,1.80
2019-06-01T12:38:58.162Z,1.85
2019-06-01T12:44:09.124Z,1.87
2019-06-01T12:49:12.514Z,1.75
2019-06-01T12:54:16.196Z,1.60
2019-06-01T12:59:19.923Z,1.70
2019-06-01T13:04:23.641Z,1.75
2019-06-01T13:09:27.278Z,1.62
2019-06-01T13:14:30.977Z,1.80
2019-06-01T13:19:34.697Z,1.60
2019-06-01T13:24:38.098Z,1.62
2019-06-01T13:29:41.834Z,1.85
2019-06-01T13:34:45.309Z,1.67
2019-06-01T13:39:55.615Z,1.60
2019-06-01T13:44:54.650Z,1.42
2019-06-01T13:49:58.358Z,1.60
2019-06-01T13:55:02.253Z,1.45
2019-06-01T14:00:09.307Z,1.57
2019-06-01T14:05:13.211Z,1.50
2019-06-01T14:10:17.134Z,1.40
2019-06-01T14:15:20.531Z,1.60
2019-06-01T14:20:23.939Z,1.37
2019-06-01T14:25:27.583Z,1.40
2019-06-01T14:30:30.980Z,1.30
2019-06-01T14:35:35.841Z,1.40
2019-06-01T14:40:41.509Z,1.50
2019-06-01T14:45:45.236Z,1.55
2019-06-01T14:50:49.549Z,1.30
2019-06-01T14:55:53.888Z,1.50
2019-06-01T15:00:58.518Z,1.50
2019-06-01T15:06:02.228Z,1.72
2019-06-01T15:11:05.930Z,1.50
2019-06-01T15:16:09.563Z,1.50
2019-06-01T15:21:12.960Z,1.32
2019-06-01T15:26:16.594Z,1.40
2019-06-01T15:31:20.233Z,1.40
2019-06-01T15:36:23.947Z,1.40
2019-06-01T15:41:27.603Z,1.50
2019-06-01T15:46:31.008Z,1.15
2019-06-01T15:51:34.749Z,1.40
2019-06-01T15:56:38.149Z,1.40
2019-06-01T16:01:41.553Z,1.80
2019-06-01T16:06:44.939Z,1.72
2019-06-01T16:11:48.579Z,1.60
2019-06-01T16:16:53.731Z,1.37
2019-06-01T16:21:58.069Z,1.30
2019-06-01T16:27:02.670Z,1.50
2019-06-01T16:32:06.455Z,1.62
2019-06-01T16:37:10.183Z,1.60
2019-06-01T16:42:13.685Z,1.57
2019-06-01T16:47:17.358Z,1.40
2019-06-01T16:52:21.037Z,1.50
2019-06-01T16:57:24.781Z,1.40
2019-06-01T17:02:28.154Z,1.40
2019-06-01T17:07:31.892Z,1.47
2019-06-01T17:12:35.289Z,1.50
2019-06-01T17:17:39.026Z,1.60
2019-06-01T17:22:42.759Z,1.60
2019-06-01T17:27:46.159Z,1.30
2019-06-01T17:32:49.553Z,1.50
2019-06-01T17:37:53.122Z,1.40
2019-06-01T17:42:56.517Z,1.40
2019-06-01T17:48:15.910Z,1.75
2019-06-01T17:53:06.715Z,1.67
2019-06-01T17:58:12.228Z,2.15
2019-06-01T18:03:15.657Z,2.00
2019-06-01T18:08:19.129Z,1.90
2019-06-01T18:13:22.711Z,2.20
2019-06-01T18:18:26.111Z,2.00
2019-06-01T18:23:29.508Z,2.22
2019-06-01T18:28:33.273Z,2.33
2019-06-01T18:33:36.685Z,2.45
2019-06-01T18:38:40.085Z,2.50
2019-06-01T18:43:43.825Z,2.42
2019-06-01T18:48:47.461Z,2.72
2019-06-01T18:53:51.166Z,2.50
2019-06-01T18:58:54.567Z,2.47
2019-06-01T19:03:58.298Z,2.50
2019-06-01T19:09:01.707Z,2.98
2019-06-01T19:14:05.689Z,2.90
2019-06-01T19:19:10.241Z,2.80
2019-06-01T19:24:14.701Z,3.05
2019-06-01T19:29:18.343Z,3.27
2019-06-01T19:34:21.970Z,3.37
2019-06-01T19:39:25.934Z,2.87
2019-06-01T19:44:29.600Z,3.37
2019-06-01T19:49:32.995Z,3.27
2019-06-01T19:54:36.396Z,3.33
2019-06-01T19:59:39.795Z,3.10
2019-06-01T20:04:43.197Z,4.05
2019-06-01T20:09:46.648Z,3.75
2019-06-01T20:14:52.084Z,3.42
2019-06-01T20:19:55.774Z,4.25
2019-06-01T20:24:59.411Z,3.62
2019-06-01T20:30:03.325Z,3.60
2019-06-01T20:35:07.379Z,3.55
2019-06-01T20:40:12.174Z,3.77
2019-06-01T20:45:16.806Z,4.15
2019-06-01T20:50:20.943Z,3.60
2019-06-01T20:55:24.686Z,3.70
2019-06-01T21:00:31.701Z,4.00
2019-06-01T21:05:33.532Z,3.75
2019-06-01T21:10:37.174Z,4.08
2019-06-01T21:15:40.912Z,3.98
2019-06-01T21:20:44.299Z,3.62
2019-06-01T21:25:48.057Z,3.70
2019-06-01T21:30:51.763Z,4.05
2019-06-01T21:35:55.162Z,3.85
2019-06-01T21:40:58.571Z,4.03
2019-06-01T21:46:03.018Z,4.20
2019-06-01T21:51:06.750Z,4.22
2019-06-01T21:56:10.157Z,3.95
2019-06-01T22:01:14.400Z,4.10
2019-06-01T22:06:18.954Z,4.85
2019-06-01T22:11:23.509Z,4.42
2019-06-01T22:16:27.882Z,4.03
2019-06-01T22:21:31.415Z,4.10
2019-06-01T22:26:35.152Z,4.40
2019-06-01T22:31:38.866Z,4.30
2019-06-01T22:36:42.263Z,4.28
2019-06-01T22:41:46.003Z,4.87
2019-06-01T22:46:49.749Z,3.75
2019-06-01T22:51:53.144Z,4.15
2019-06-01T22:56:56.858Z,4.58
2019-06-01T23:02:00.578Z,4.55
2019-06-01T23:07:04.163Z,5.20
2019-06-01T23:12:07.819Z,5.58
2019-06-01T23:17:11.539Z,5.25
2019-06-01T23:22:15.265Z,4.60
2019-06-01T23:27:18.662Z,5.75
2019-06-01T23:32:22.467Z,6.00
2019-06-01T23:37:26.677Z,5.62
2019-06-01T23:42:30.900Z,5.33
2019-06-01T23:47:34.586Z,6.05
2019-06-01T23:52:37.987Z,5.60
2019-06-01T23:57:41.759Z,5.87
